createdAt,value
2023-01-26T00:01:22.710Z,5.50
2023-01-26T00:06:25.892Z,6.00
2023-01-26T00:11:30.316Z,5.90
2023-01-26T00:16:32.898Z,5.70
2023-01-26T00:21:35.330Z,5.30
2023-01-26T00:26:37.763Z,5.00
2023-01-26T00:31:40.188Z,4.70
2023-01-26T00:36:42.621Z,4.70
2023-01-26T00:42:03.487Z,4.70
2023-01-26T00:47:08.360Z,4.70
2023-01-26T00:52:12.503Z,3.90
2023-01-26T00:57:14.838Z,4.30
2023-01-26T01:02:17.313Z,4.60
2023-01-26T01:07:19.672Z,4.40
2023-01-26T01:12:22.051Z,4.40
2023-01-26T01:17:24.382Z,4.60
2023-01-26T01:22:26.732Z,4.60
2023-01-26T01:27:29.125Z,4.80
2023-01-26T01:32:31.511Z,4.80
2023-01-26T01:37:34.001Z,4.70
2023-01-26T01:42:36.322Z,4.70
2023-01-26T01:47:38.773Z,4.80
2023-01-26T01:52:41.133Z,4.60
2023-01-26T01:57:55.314Z,4.20
2023-01-26T02:03:12.047Z,4.00
2023-01-26T02:08:18.229Z,3.90
2023-01-26T02:13:22.573Z,3.60
2023-01-26T02:18:25.245Z,3.10
2023-01-26T02:23:42.911Z,3.00
2023-01-26T02:28:47.298Z,3.40
2023-01-26T02:33:50.358Z,3.10
2023-01-26T02:39:23.995Z,3.00
2023-01-26T02:44:27.404Z,2.80
2023-01-26T02:49:47.972Z,2.90
2023-01-26T02:55:11.202Z,2.90
2023-01-26T03:00:29.420Z,2.60
2023-01-26T03:05:31.826Z,2.30
2023-01-26T03:10:36.116Z,2.60
2023-01-26T03:15:52.498Z,2.50
2023-01-26T03:21:16.495Z,2.40
2023-01-26T03:26:37.247Z,2.30
2023-01-26T03:31:39.777Z,1.90
2023-01-26T03:36:43.424Z,1.20
2023-01-26T03:42:08.034Z,1.00
2023-01-26T03:47:29.533Z,1.10
2023-01-26T03:52:51.382Z,1.20
2023-01-26T03:57:53.916Z,1.20
2023-01-26T04:03:14.714Z,1.30
2023-01-26T04:08:29.157Z,1.60
2023-01-26T04:13:52.645Z,1.80
2023-01-26T04:19:18.810Z,2.00
2023-01-26T04:24:22.673Z,2.00
2023-01-26T04:29:30.129Z,2.40
2023-01-26T04:34:32.886Z,2.10
2023-01-26T04:39:37.282Z,1.80
2023-01-26T04:44:41.044Z,1.80
2023-01-26T04:49:44.676Z,2.00
2023-01-26T04:54:48.120Z,2.40
2023-01-26T04:59:50.632Z,2.80
2023-01-26T05:04:55.433Z,3.30
2023-01-26T05:09:57.974Z,4.20
2023-01-26T05:15:18.972Z,5.10
2023-01-26T05:20:47.821Z,6.30
2023-01-26T05:25:58.315Z,6.80
2023-01-26T05:31:00.886Z,7.00
2023-01-26T05:36:07.809Z,6.90
2023-01-26T05:41:10.658Z,6.60
2023-01-26T05:46:44.330Z,6.90
2023-01-26T05:51:47.039Z,6.90
2023-01-26T05:56:50.806Z,7.30
2023-01-26T06:01:53.405Z,7.10
2023-01-26T06:06:58.264Z,7.20
2023-01-26T06:12:06.907Z,7.10
2023-01-26T06:17:41.681Z,7.20
2023-01-26T06:22:46.145Z,7.20
2023-01-26T06:27:48.737Z,7.20
2023-01-26T06:33:01.649Z,7.00
2023-01-26T06:38:05.463Z,6.90
2023-01-26T06:43:08.153Z,7.30
2023-01-26T06:48:11.828Z,7.40
2023-01-26T06:53:30.729Z,7.60
2023-01-26T06:59:11.789Z,7.40
2023-01-26T07:04:34.712Z,6.70
2023-01-26T07:09:37.328Z,6.40
2023-01-26T07:14:39.907Z,6.10
2023-01-26T07:19:42.264Z,5.70
2023-01-26T07:24:44.674Z,5.40
2023-01-26T07:29:47.151Z,4.90
2023-01-26T07:34:49.600Z,4.50
2023-01-26T07:40:01.052Z,4.40
2023-01-26T07:45:03.597Z,4.00
2023-01-26T07:50:07.294Z,3.50
2023-01-26T07:55:09.787Z,3.40
2023-01-26T08:00:12.915Z,2.20
2023-01-26T08:05:15.603Z,1.80
2023-01-26T08:10:18.923Z,1.30
2023-01-26T08:15:21.299Z,1.00
2023-01-26T08:20:23.799Z,1.00
2023-01-26T08:25:26.169Z,1.00
2023-01-26T08:30:28.608Z,1.00
2023-01-26T08:35:34.207Z,1.00
2023-01-26T08:40:36.583Z,1.00
2023-01-26T08:45:38.969Z,1.00
2023-01-26T08:50:41.421Z,1.00
2023-01-26T08:55:43.812Z,1.00
2023-01-26T09:00:46.388Z,1.00
2023-01-26T09:05:48.809Z,1.00
2023-01-26T09:10:51.517Z,1.00
2023-01-26T09:15:54.633Z,1.00
2023-01-26T09:21:03.618Z,1.00
2023-01-26T09:26:06.011Z,1.00
2023-01-26T09:31:12.557Z,1.00
2023-01-26T09:36:15.018Z,1.00
2023-01-26T09:41:43.387Z,1.00
2023-01-26T09:47:24.375Z,1.00
2023-01-26T09:52:47.872Z,1.00
2023-01-26T09:58:12.907Z,1.00
2023-01-26T10:03:35.289Z,1.00
2023-01-26T10:08:37.723Z,1.00
2023-01-26T10:13:44.463Z,1.00
2023-01-26T10:19:06.525Z,1.00
2023-01-26T10:24:12.032Z,1.00
2023-01-26T10:29:18.351Z,1.00
2023-01-26T10:34:26.282Z,1.00
2023-01-26T10:39:28.664Z,1.00
2023-01-26T10:44:40.277Z,1.00
2023-01-26T10:49:42.982Z,1.00
2023-01-26T10:54:51.443Z,1.00
2023-01-26T10:59:56.179Z,1.00
2023-01-26T11:05:04.712Z,1.00
2023-01-26T11:10:23.811Z,1.00
2023-01-26T11:15:28.353Z,1.00
2023-01-26T11:20:46.050Z,1.00
2023-01-26T11:26:23.488Z,1.00
2023-01-26T11:31:45.190Z,1.00
2023-01-26T11:36:53.479Z,1.00
2023-01-26T11:42:26.692Z,1.00
2023-01-26T11:47:57.519Z,1.00
2023-01-26T11:53:22.647Z,1.00
2023-01-26T11:58:49.045Z,1.00
2023-01-26T12:03:52.474Z,1.00
2023-01-26T12:09:01.766Z,1.00
2023-01-26T12:14:16.026Z,1.00
2023-01-26T12:19:40.400Z,1.00
2023-01-26T12:25:17.515Z,1.00
2023-01-26T12:30:35.523Z,1.00
2023-01-26T12:35:57.032Z,1.00
2023-01-26T12:41:13.427Z,1.00
2023-01-26T12:46:17.507Z,1.00
2023-01-26T12:51:29.759Z,1.00
2023-01-26T12:56:39.772Z,1.00
2023-01-26T13:01:43.448Z,1.00
2023-01-26T13:07:00.880Z,1.00
2023-01-26T13:12:03.387Z,1.00
2023-01-26T13:17:19.024Z,1.00
2023-01-26T13:22:24.384Z,1.00
2023-01-26T13:27:45.670Z,1.00
2023-01-26T13:32:47.965Z,1.00
2023-01-26T13:37:59.571Z,1.00
2023-01-26T13:43:26.710Z,1.00
2023-01-26T13:48:56.548Z,1.00
2023-01-26T13:54:06.631Z,1.00
2023-01-26T13:59:12.138Z,1.00
2023-01-26T14:04:22.851Z,1.00
2023-01-26T14:09:28.206Z,1.00
2023-01-26T14:14:34.036Z,1.00
2023-01-26T14:19:41.421Z,1.00
2023-01-26T14:24:49.451Z,1.00
2023-01-26T14:29:51.850Z,1.00
2023-01-26T14:34:57.256Z,1.00
2023-01-26T14:40:35.162Z,1.00
2023-01-26T14:45:40.076Z,1.00
2023-01-26T14:50:45.865Z,1.00
2023-01-26T14:55:50.347Z,1.00
2023-01-26T15:00:53.581Z,1.00
2023-01-26T15:06:14.153Z,1.00
2023-01-26T15:11:47.255Z,1.00
2023-01-26T15:16:53.810Z,1.00
2023-01-26T15:21:56.203Z,1.00
2023-01-26T15:27:06.385Z,1.00
2023-01-26T15:32:32.487Z,1.00
2023-01-26T15:37:36.199Z,1.00
2023-01-26T15:42:38.769Z,1.00
2023-01-26T15:47:41.068Z,1.00
2023-01-26T15:52:43.435Z,1.00
2023-01-26T15:57:45.761Z,1.00
2023-01-26T16:02:48.331Z,1.00
2023-01-26T16:07:52.703Z,1.00
2023-01-26T16:12:55.249Z,1.00
2023-01-26T16:17:57.557Z,1.00
2023-01-26T16:23:00.679Z,1.00
2023-01-26T16:28:03.074Z,1.00
2023-01-26T16:33:05.550Z,1.00
2023-01-26T16:38:14.155Z,1.00
2023-01-26T16:43:24.343Z,1.00
2023-01-26T16:48:31.406Z,1.00
2023-01-26T16:53:35.112Z,1.00
2023-01-26T16:58:37.699Z,1.00
2023-01-26T17:03:40.007Z,1.00
2023-01-26T17:08:42.829Z,1.00
2023-01-26T17:13:45.490Z,1.00
2023-01-26T17:18:48.927Z,1.00
2023-01-26T17:23:56.958Z,1.00
2023-01-26T17:28:59.327Z,1.00
2023-01-26T17:34:01.861Z,1.00
2023-01-26T17:39:04.638Z,1.00
2023-01-26T17:44:07.035Z,1.00
2023-01-26T17:49:09.422Z,1.00
2023-01-26T17:54:11.709Z,1.00
2023-01-26T17:59:14.119Z,1.00
2023-01-26T18:04:16.460Z,1.00
2023-01-26T18:09:18.983Z,1.00
2023-01-26T18:14:21.710Z,1.00
2023-01-26T18:19:24.241Z,1.00
2023-01-26T18:24:26.821Z,1.00
2023-01-26T18:29:29.261Z,1.00
2023-01-26T18:34:31.624Z,1.00
2023-01-26T18:39:34.051Z,1.00
2023-01-26T18:44:36.377Z,1.00
2023-01-26T18:49:38.727Z,1.00
2023-01-26T18:54:41.111Z,1.00
2023-01-26T18:59:43.875Z,1.00
2023-01-26T19:04:46.356Z,1.00
2023-01-26T19:09:48.819Z,1.00
2023-01-26T19:14:51.202Z,1.00
2023-01-26T19:19:53.587Z,1.00
2023-01-26T19:24:55.909Z,1.00
2023-01-26T19:29:58.233Z,1.00
2023-01-26T19:35:00.576Z,1.00
2023-01-26T19:40:02.969Z,1.00
2023-01-26T19:45:05.602Z,1.00
2023-01-26T19:50:08.511Z,1.00
2023-01-26T19:55:11.116Z,1.00
2023-01-26T20:00:14.612Z,1.00
2023-01-26T20:05:18.603Z,1.00
2023-01-26T20:10:20.970Z,1.00
2023-01-26T20:15:23.378Z,1.00
2023-01-26T20:20:25.704Z,1.00
2023-01-26T20:25:28.792Z,1.00
2023-01-26T20:30:31.141Z,1.00
2023-01-26T20:35:33.988Z,1.00
2023-01-26T20:40:38.901Z,1.00
2023-01-26T20:45:41.696Z,1.00
2023-01-26T20:50:45.001Z,1.00
2023-01-26T20:55:47.353Z,1.00
2023-01-26T21:00:49.751Z,1.00
2023-01-26T21:05:52.088Z,1.00
2023-01-26T21:10:54.524Z,1.00
2023-01-26T21:15:56.945Z,1.00
2023-01-26T21:21:03.475Z,1.00
2023-01-26T21:26:09.950Z,1.00
2023-01-26T21:31:14.281Z,1.00
2023-01-26T21:36:25.287Z,1.00
2023-01-26T21:41:50.717Z,1.00
2023-01-26T21:47:06.264Z,1.00
2023-01-26T21:52:39.136Z,1.00
2023-01-26T21:57:59.846Z,1.00
2023-01-26T22:03:02.320Z,1.00
2023-01-26T22:08:06.417Z,1.00
2023-01-26T22:13:10.650Z,1.00
2023-01-26T22:18:16.106Z,1.00
2023-01-26T22:23:18.493Z,1.00
2023-01-26T22:28:20.800Z,1.00
2023-01-26T22:33:23.187Z,1.00
2023-01-26T22:38:25.502Z,1.00
2023-01-26T22:43:28.196Z,1.00
2023-01-26T22:48:31.954Z,1.00
2023-01-26T22:53:34.455Z,1.00
2023-01-26T22:58:47.709Z,1.00
2023-01-26T23:03:51.887Z,1.00
2023-01-26T23:08:55.229Z,1.00
2023-01-26T23:13:58.973Z,1.00
2023-01-26T23:19:01.336Z,1.00
2023-01-26T23:24:03.856Z,1.00
2023-01-26T23:29:06.237Z,1.00
2023-01-26T23:34:08.555Z,1.00
2023-01-26T23:39:10.854Z,1.00
2023-01-26T23:44:13.207Z,1.00
2023-01-26T23:49:15.664Z,1.00
2023-01-26T23:54:17.999Z,1.00
2023-01-26T23:59:20.655Z,1.00
